createdAt,value
2022-09-28T00:01:11.129Z,93077.88
2022-09-28T00:06:18.885Z,93075.72
2022-09-28T00:11:24.154Z,93063.13
2022-09-28T00:16:30.203Z,93057.72
2022-09-28T00:21:36.932Z,93055.81
2022-09-28T00:26:41.357Z,93053.56
2022-09-28T00:31:46.045Z,93058.88
2022-09-28T00:36:49.331Z,93039.13
2022-09-28T00:41:54.123Z,93018.56
2022-09-28T00:47:13.210Z,93030.50
2022-09-28T00:52:23.604Z,93015.22
2022-09-28T00:57:28.870Z,93000.06
2022-09-28T01:02:32.232Z,93001.88
2022-09-28T01:07:37.137Z,92995.81
2022-09-28T01:12:40.545Z,92989.22
2022-09-28T01:18:05.370Z,92988.66
2022-09-28T01:23:43.264Z,92976.03
2022-09-28T01:28:48.728Z,92962.84
2022-09-28T01:34:00.081Z,92963.81
2022-09-28T01:39:38.489Z,92970.72
2022-09-28T01:44:47.159Z,92968.53
2022-09-28T01:50:04.556Z,92980.91
2022-09-28T01:55:17.300Z,92977.16
2022-09-28T02:00:25.461Z,92977.28
2022-09-28T02:05:35.901Z,92970.22
2022-09-28T02:10:48.197Z,92970.63
2022-09-28T02:15:59.229Z,92967.66
2022-09-28T02:21:28.816Z,92960.31
2022-09-28T02:26:38.198Z,92956.84
2022-09-28T02:31:42.557Z,92952.56
2022-09-28T02:36:47.311Z,92965.59
2022-09-28T02:41:59.736Z,92963.13
2022-09-28T02:47:26.764Z,92967.66
2022-09-28T02:53:03.657Z,92950.81
2022-09-28T02:58:40.943Z,92945.69
2022-09-28T03:03:45.042Z,92949.31
2022-09-28T03:09:07.504Z,92936.69
2022-09-28T03:14:13.438Z,92950.06
2022-09-28T03:19:33.138Z,92953.00
2022-09-28T03:24:37.627Z,92952.81
2022-09-28T03:29:41.183Z,92957.34
2022-09-28T03:34:45.137Z,92954.75
2022-09-28T03:39:48.946Z,92949.88
2022-09-28T03:44:53.085Z,92962.34
2022-09-28T03:49:56.498Z,92959.50
2022-09-28T03:54:59.897Z,92960.75
2022-09-28T04:00:05.635Z,92925.88
2022-09-28T04:05:16.742Z,92978.44
2022-09-28T04:10:21.217Z,92964.44
2022-09-28T04:15:25.352Z,92972.34
2022-09-28T04:20:29.102Z,92967.63
2022-09-28T04:25:39.853Z,92973.63
2022-09-28T04:30:47.616Z,92980.13
2022-09-28T04:35:51.563Z,92970.00
2022-09-28T04:40:54.716Z,92973.78
2022-09-28T04:46:03.073Z,92970.53
2022-09-28T04:51:13.027Z,92979.97
2022-09-28T04:56:17.766Z,92978.44
2022-09-28T05:01:23.930Z,92976.16
2022-09-28T05:06:48.079Z,92967.25
2022-09-28T05:11:53.332Z,92983.22
2022-09-28T05:16:59.481Z,92982.84
2022-09-28T05:22:07.462Z,92996.03
2022-09-28T05:27:15.266Z,92999.13
2022-09-28T05:32:21.567Z,92997.78
2022-09-28T05:37:48.318Z,92978.34
2022-09-28T05:42:51.700Z,93000.75
2022-09-28T05:47:55.912Z,93006.88
2022-09-28T05:53:11.603Z,93020.44
2022-09-28T05:58:15.315Z,93015.63
2022-09-28T06:03:18.832Z,93027.88
2022-09-28T06:08:23.149Z,93037.63
2022-09-28T06:13:43.089Z,93015.31
2022-09-28T06:18:48.657Z,93012.00
2022-09-28T06:24:10.481Z,93003.50
2022-09-28T06:29:20.016Z,93021.25
2022-09-28T06:34:25.012Z,93003.97
2022-09-28T06:39:29.535Z,93013.81
2022-09-28T06:44:34.296Z,93006.72
2022-09-28T06:50:00.503Z,93000.41
2022-09-28T06:55:24.835Z,93005.66
2022-09-28T07:00:35.551Z,92992.69
2022-09-28T07:05:43.500Z,92994.44
2022-09-28T07:11:07.791Z,93002.78
2022-09-28T07:16:26.427Z,93009.53
2022-09-28T07:21:34.097Z,93017.66
2022-09-28T07:26:40.734Z,93019.13
2022-09-28T07:31:56.515Z,93015.44
2022-09-28T07:37:05.959Z,93014.44
2022-09-28T07:42:09.644Z,93025.31
2022-09-28T07:47:12.988Z,93020.31
2022-09-28T07:52:39.517Z,93018.22
2022-09-28T07:58:01.806Z,93025.38
2022-09-28T08:03:40.246Z,93018.53
2022-09-28T08:08:45.544Z,93020.44
2022-09-28T08:13:53.164Z,93012.34
2022-09-28T08:19:14.817Z,92966.66
2022-09-28T08:24:18.300Z,92963.88
2022-09-28T08:29:23.480Z,93002.19
2022-09-28T08:34:46.343Z,93022.63
2022-09-28T08:40:19.024Z,93003.22
2022-09-28T08:45:43.077Z,93015.81
2022-09-28T08:51:15.850Z,93020.00
2022-09-28T08:56:32.997Z,93016.41
2022-09-28T09:01:44.430Z,93020.53
2022-09-28T09:07:00.059Z,93027.22
2022-09-28T09:12:43.794Z,93015.66
2022-09-28T09:18:19.261Z,93018.13
2022-09-28T09:23:56.369Z,93031.00
2022-09-28T09:29:09.674Z,93020.31
2022-09-28T09:34:42.813Z,93010.28
2022-09-28T09:40:07.658Z,93015.19
2022-09-28T09:45:56.911Z,93012.31
2022-09-28T09:51:23.428Z,93001.38
2022-09-28T09:56:44.189Z,92995.78
2022-09-28T10:01:56.590Z,92998.56
2022-09-28T10:07:23.106Z,92994.53
2022-09-28T10:12:27.202Z,92993.69
2022-09-28T10:17:31.696Z,92989.34
2022-09-28T10:23:02.653Z,92979.69
2022-09-28T10:28:07.954Z,92998.16
2022-09-28T10:33:33.018Z,93001.38
2022-09-28T10:38:36.411Z,93018.72
2022-09-28T10:44:07.010Z,93014.66
2022-09-28T10:49:47.103Z,92984.91
2022-09-28T10:54:54.159Z,92988.50
2022-09-28T10:59:59.442Z,92990.16
2022-09-28T11:05:07.561Z,92995.78
2022-09-28T11:10:23.332Z,92995.09
2022-09-28T11:15:32.001Z,92977.88
2022-09-28T11:20:42.643Z,92986.25
2022-09-28T11:26:07.270Z,92977.13
2022-09-28T11:31:12.170Z,92976.69
2022-09-28T11:36:41.837Z,92969.94
2022-09-28T11:42:00.240Z,92969.97
2022-09-28T11:47:35.205Z,92961.78
2022-09-28T11:52:46.461Z,92974.94
2022-09-28T11:58:03.967Z,92964.41
2022-09-28T12:03:35.085Z,92959.72
2022-09-28T12:08:46.233Z,92954.03
2022-09-28T12:14:19.090Z,92962.41
2022-09-28T12:19:33.958Z,92960.09
2022-09-28T12:24:40.191Z,92949.50
2022-09-28T12:29:49.012Z,92949.66
2022-09-28T12:34:52.833Z,92953.94
2022-09-28T12:40:30.237Z,92942.16
2022-09-28T12:46:10.912Z,92955.81
2022-09-28T12:51:45.512Z,92941.63
2022-09-28T12:56:58.332Z,92941.09
2022-09-28T13:02:34.295Z,92947.44
2022-09-28T13:07:44.798Z,92934.72
2022-09-28T13:13:00.117Z,92926.06
2022-09-28T13:18:23.315Z,92926.69
2022-09-28T13:23:31.390Z,92925.72
2022-09-28T13:28:36.391Z,92922.75
2022-09-28T13:33:40.890Z,92917.06
2022-09-28T13:38:49.856Z,92914.53
2022-09-28T13:44:28.313Z,92916.25
2022-09-28T13:49:54.617Z,92879.03
2022-09-28T13:55:04.018Z,92919.66
2022-09-28T14:00:28.394Z,92927.56
2022-09-28T14:05:42.010Z,92926.88
2022-09-28T14:10:57.154Z,92915.94
2022-09-28T14:16:21.234Z,92908.88
2022-09-28T14:21:56.072Z,92919.78
2022-09-28T14:27:05.087Z,92910.44
2022-09-28T14:32:13.523Z,92918.13
2022-09-28T14:37:49.838Z,92918.16
2022-09-28T14:43:25.135Z,92916.78
2022-09-28T14:48:51.227Z,92914.28
2022-09-28T14:53:56.040Z,92927.59
2022-09-28T14:58:59.705Z,92918.63
2022-09-28T15:04:05.377Z,92885.97
2022-09-28T15:09:27.485Z,92921.94
2022-09-28T15:14:33.509Z,92921.75
2022-09-28T15:19:43.505Z,92923.00
2022-09-28T15:25:01.348Z,92924.41
2022-09-28T15:30:25.873Z,92907.72
2022-09-28T15:35:30.309Z,92923.25
2022-09-28T15:40:38.122Z,92926.25
2022-09-28T15:45:43.762Z,92924.38
2022-09-28T15:51:21.496Z,92940.63
2022-09-28T15:56:28.858Z,92928.91
2022-09-28T16:01:38.291Z,92941.22
2022-09-28T16:06:42.002Z,92935.84
2022-09-28T16:11:45.032Z,92941.59
2022-09-28T16:16:50.029Z,92939.47
2022-09-28T16:21:56.060Z,92960.63
2022-09-28T16:27:03.180Z,92955.44
2022-09-28T16:32:27.170Z,92966.50
2022-09-28T16:37:32.984Z,92943.28
2022-09-28T16:42:36.937Z,92972.13
2022-09-28T16:47:40.952Z,92966.38
2022-09-28T16:53:02.392Z,92959.59
2022-09-28T16:58:06.991Z,92959.38
2022-09-28T17:03:19.163Z,92966.91
2022-09-28T17:08:24.639Z,92980.22
2022-09-28T17:13:34.103Z,92979.25
2022-09-28T17:18:39.519Z,92973.06
2022-09-28T17:23:47.801Z,92975.81
2022-09-28T17:28:51.238Z,92984.28
2022-09-28T17:33:55.844Z,92996.28
2022-09-28T17:38:58.924Z,93006.50
2022-09-28T17:44:03.303Z,93006.00
2022-09-28T17:49:07.871Z,93011.09
2022-09-28T17:54:13.098Z,93015.09
2022-09-28T17:59:18.082Z,93010.00
2022-09-28T18:04:50.379Z,93010.97
2022-09-28T19:13:02.462Z,93065.16
2022-09-28T19:18:25.459Z,93065.59
2022-09-28T19:23:28.889Z,93074.56
2022-09-28T19:28:32.555Z,93068.38
2022-09-28T19:33:40.305Z,93067.00
2022-09-28T19:38:44.293Z,93061.91
2022-09-28T19:49:37.261Z,93063.44
2022-09-28T19:54:41.633Z,93069.63
2022-09-28T19:59:45.396Z,93081.63
2022-09-28T20:04:50.365Z,93075.09
2022-09-28T20:09:53.773Z,93085.38
2022-09-28T20:14:56.687Z,93085.06
2022-09-28T20:20:00.038Z,93085.22
2022-09-28T20:25:03.529Z,93102.97
2022-09-28T20:30:08.124Z,93086.88
2022-09-28T20:35:11.734Z,93076.91
2022-09-28T20:40:15.028Z,93094.28
2022-09-28T20:45:18.377Z,93090.81
2022-09-28T20:50:23.628Z,93096.69
2022-09-28T20:55:26.841Z,93105.66
2022-09-28T21:00:29.859Z,93094.19
2022-09-28T21:05:36.532Z,93077.44
2022-09-28T21:10:43.855Z,93077.84
2022-09-28T21:15:49.476Z,93080.06
2022-09-28T21:20:52.364Z,93082.16
2022-09-28T21:26:26.402Z,93091.88
2022-09-28T21:31:32.828Z,93084.13
2022-09-28T21:36:36.258Z,93094.34
2022-09-28T21:41:39.821Z,93092.03
2022-09-28T21:46:43.370Z,93091.66
2022-09-28T21:51:47.250Z,93101.19
2022-09-28T21:56:50.066Z,93096.59
2022-09-28T22:01:53.979Z,93100.47
2022-09-28T22:06:57.251Z,93090.31
2022-09-28T22:12:00.600Z,93091.28
2022-09-28T22:17:04.249Z,93087.41
2022-09-28T22:22:07.487Z,93075.22
2022-09-28T22:27:10.357Z,93070.03
2022-09-28T22:32:13.246Z,93077.09
2022-09-28T22:37:16.118Z,93070.25
2022-09-28T22:42:23.065Z,93082.19
2022-09-28T22:47:25.976Z,93075.41
2022-09-28T22:52:28.897Z,93076.97
2022-09-28T22:57:32.532Z,93068.69
2022-09-28T23:02:35.687Z,93074.94
2022-09-28T23:07:38.967Z,93068.25
2022-09-28T23:12:42.733Z,93071.16
2022-09-28T23:17:46.036Z,93071.75
2022-09-28T23:22:50.783Z,93068.41
2022-09-28T23:27:53.628Z,93060.94
2022-09-28T23:32:57.071Z,93057.09
2022-09-28T23:38:00.968Z,93056.81
2022-09-28T23:43:04.243Z,93063.56
2022-09-28T23:48:07.668Z,93050.91
2022-09-28T23:53:13.837Z,93032.09
2022-09-28T23:58:17.510Z,93035.44
